sensor_id;sensor_type;location;lat;lon;timestamp;pressure;altitude;pressure_sealevel;temperature;humidity
32759;BME280;19125;52.360;9.974;2023-03-04T00:00:05;88319.06;;;-145.17;56.17
32759;BME280;19125;52.360;9.974;2023-03-04T00:02:30;88380.59;;;-145.17;56.23
32759;BME280;19125;52.360;9.974;2023-03-04T00:04:56;88370.66;;;-145.17;56.68
32759;BME280;19125;52.360;9.974;2023-03-04T00:07:21;88332.94;;;-145.17;56.41
32759;BME280;19125;52.360;9.974;2023-03-04T00:09:46;88362.72;;;-145.17;56.55
32759;BME280;19125;52.360;9.974;2023-03-04T00:12:12;88390.53;;;-145.17;56.39
32759;BME280;19125;52.360;9.974;2023-03-04T00:14:37;88346.84;;;-145.17;56.05
32759;BME280;19125;52.360;9.974;2023-03-04T00:17:04;88307.13;;;-145.17;56.12
32759;BME280;19125;52.360;9.974;2023-03-04T00:19:30;88354.78;;;-145.17;56.45
32759;BME280;19125;52.360;9.974;2023-03-04T00:21:55;88330.97;;;-145.17;56.33
32759;BME280;19125;52.360;9.974;2023-03-04T00:24:21;88340.88;;;-145.17;56.25
32759;BME280;19125;52.360;9.974;2023-03-04T00:26:46;88362.72;;;-145.17;56.00
32759;BME280;19125;52.360;9.974;2023-03-04T00:29:12;88315.06;;;-145.17;56.39
32759;BME280;19125;52.360;9.974;2023-03-04T00:31:37;88342.88;;;-145.17;56.17
32759;BME280;19125;52.360;9.974;2023-03-04T00:34:03;88332.94;;;-145.17;56.21
32759;BME280;19125;52.360;9.974;2023-03-04T00:36:28;88332.94;;;-145.17;55.97
32759;BME280;19125;52.360;9.974;2023-03-04T00:38:53;88374.63;;;-145.17;56.20
32759;BME280;19125;52.360;9.974;2023-03-04T00:41:19;88340.88;;;-145.17;56.10
32759;BME280;19125;52.360;9.974;2023-03-04T00:43:44;88336.91;;;-145.17;56.01
32759;BME280;19125;52.360;9.974;2023-03-04T00:46:09;88301.19;;;-145.17;56.26
32759;BME280;19125;52.360;9.974;2023-03-04T00:48:35;88289.25;;;-145.17;56.05
32759;BME280;19125;52.360;9.974;2023-03-04T00:51:00;88315.06;;;-145.17;55.94
32759;BME280;19125;52.360;9.974;2023-03-04T00:53:25;88281.31;;;-145.17;55.70
32759;BME280;19125;52.360;9.974;2023-03-04T00:55:51;88327.00;;;-145.17;55.68
32759;BME280;19125;52.360;9.974;2023-03-04T00:58:16;88315.06;;;-145.17;55.51
32759;BME280;19125;52.360;9.974;2023-03-04T01:00:41;88255.50;;;-145.17;55.70
32759;BME280;19125;52.360;9.974;2023-03-04T01:03:07;88307.13;;;-145.17;55.88
32759;BME280;19125;52.360;9.974;2023-03-04T01:05:32;88307.13;;;-145.17;55.65
32759;BME280;19125;52.360;9.974;2023-03-04T01:08:00;88311.09;;;-145.17;55.82
32759;BME280;19125;52.360;9.974;2023-03-04T01:10:25;88289.25;;;-145.17;55.90
32759;BME280;19125;52.360;9.974;2023-03-04T01:12:51;88319.06;;;-145.17;55.59
32759;BME280;19125;52.360;9.974;2023-03-04T01:15:16;88295.22;;;-145.17;55.74
32759;BME280;19125;52.360;9.974;2023-03-04T01:17:42;88309.13;;;-145.17;56.03
32759;BME280;19125;52.360;9.974;2023-03-04T01:20:08;88299.19;;;-145.17;56.10
32759;BME280;19125;52.360;9.974;2023-03-04T01:22:33;88293.25;;;-145.17;56.02
32759;BME280;19125;52.360;9.974;2023-03-04T01:24:59;88330.97;;;-145.17;55.97
32759;BME280;19125;52.360;9.974;2023-03-04T01:27:24;88287.28;;;-145.17;56.09
32759;BME280;19125;52.360;9.974;2023-03-04T01:29:50;88305.16;;;-145.17;56.11
32759;BME280;19125;52.360;9.974;2023-03-04T01:32:15;88269.41;;;-145.17;56.04
32759;BME280;19125;52.360;9.974;2023-03-04T01:34:40;88299.19;;;-145.17;55.90
32759;BME280;19125;52.360;9.974;2023-03-04T01:37:06;88301.19;;;-145.17;55.90
32759;BME280;19125;52.360;9.974;2023-03-04T01:39:31;88311.09;;;-145.17;55.88
32759;BME280;19125;52.360;9.974;2023-03-04T01:41:57;88287.28;;;-145.17;55.83
32759;BME280;19125;52.360;9.974;2023-03-04T01:44:22;88301.19;;;-145.17;55.74
32759;BME280;19125;52.360;9.974;2023-03-04T01:46:50;88259.47;;;-145.17;56.13
32759;BME280;19125;52.360;9.974;2023-03-04T01:49:17;88307.13;;;-145.17;56.07
32759;BME280;19125;52.360;9.974;2023-03-04T01:51:46;88299.19;;;-145.17;55.92
32759;BME280;19125;52.360;9.974;2023-03-04T01:54:13;88295.22;;;-145.17;56.02
32759;BME280;19125;52.360;9.974;2023-03-04T01:56:39;88315.06;;;-145.17;55.88
32759;BME280;19125;52.360;9.974;2023-03-04T01:59:22;88330.97;;;-145.17;55.85
32759;BME280;19125;52.360;9.974;2023-03-04T02:01:53;88277.34;;;-145.17;56.05
32759;BME280;19125;52.360;9.974;2023-03-04T02:04:21;88287.28;;;-145.17;55.84
32759;BME280;19125;52.360;9.974;2023-03-04T02:06:48;88315.06;;;-145.17;56.00
32759;BME280;19125;52.360;9.974;2023-03-04T02:09:15;88323.03;;;-145.17;56.11
32759;BME280;19125;52.360;9.974;2023-03-04T02:11:42;88348.81;;;-145.17;56.20
32759;BME280;19125;52.360;9.974;2023-03-04T02:14:09;88338.91;;;-145.17;56.24
32759;BME280;19125;52.360;9.974;2023-03-04T02:16:34;88319.06;;;-145.17;56.01
32759;BME280;19125;52.360;9.974;2023-03-04T02:19:00;88283.31;;;-145.17;56.30
32759;BME280;19125;52.360;9.974;2023-03-04T02:21:32;88342.88;;;-145.17;56.38
32759;BME280;19125;52.360;9.974;2023-03-04T02:26:26;88325.00;;;-145.17;56.30
32759;BME280;19125;52.360;9.974;2023-03-04T02:28:53;88366.69;;;-145.17;56.43
32759;BME280;19125;52.360;9.974;2023-03-04T02:31:21;88356.78;;;-145.17;56.29
32759;BME280;19125;52.360;9.974;2023-03-04T02:33:46;88305.16;;;-145.17;56.67
32759;BME280;19125;52.360;9.974;2023-03-04T02:36:12;88332.94;;;-145.17;56.55
32759;BME280;19125;52.360;9.974;2023-03-04T02:38:37;88366.69;;;-145.17;56.60
32759;BME280;19125;52.360;9.974;2023-03-04T02:41:03;88358.75;;;-145.17;56.74
32759;BME280;19125;52.360;9.974;2023-03-04T02:43:29;88344.84;;;-145.17;56.67
32759;BME280;19125;52.360;9.974;2023-03-04T02:45:54;88394.50;;;-145.17;56.65
32759;BME280;19125;52.360;9.974;2023-03-04T02:48:21;88356.78;;;-145.17;57.04
32759;BME280;19125;52.360;9.974;2023-03-04T02:50:50;88328.97;;;-145.17;56.74
32759;BME280;19125;52.360;9.974;2023-03-04T02:53:17;88342.88;;;-145.17;56.79
32759;BME280;19125;52.360;9.974;2023-03-04T02:55:42;88346.84;;;-145.17;56.98
32759;BME280;19125;52.360;9.974;2023-03-04T02:58:09;88354.78;;;-145.17;57.16
32759;BME280;19125;52.360;9.974;2023-03-04T03:00:35;88338.91;;;-145.17;57.14
32759;BME280;19125;52.360;9.974;2023-03-04T03:03:01;88350.81;;;-145.17;57.22
32759;BME280;19125;52.360;9.974;2023-03-04T03:05:30;88368.69;;;-145.17;57.25
32759;BME280;19125;52.360;9.974;2023-03-04T03:07:55;88388.53;;;-145.17;57.14
32759;BME280;19125;52.360;9.974;2023-03-04T03:10:22;88380.59;;;-145.17;56.99
32759;BME280;19125;52.360;9.974;2023-03-04T03:12:47;88342.88;;;-145.17;57.03
32759;BME280;19125;52.360;9.974;2023-03-04T03:15:13;88366.69;;;-145.17;57.18
32759;BME280;19125;52.360;9.974;2023-03-04T03:17:39;88368.69;;;-145.17;56.95
32759;BME280;19125;52.360;9.974;2023-03-04T03:20:05;88382.59;;;-145.17;57.26
32759;BME280;19125;52.360;9.974;2023-03-04T03:22:31;88378.63;;;-145.17;57.22
32759;BME280;19125;52.360;9.974;2023-03-04T03:24:57;88388.53;;;-145.17;57.51
32759;BME280;19125;52.360;9.974;2023-03-04T03:27:22;88390.53;;;-145.17;57.49
32759;BME280;19125;52.360;9.974;2023-03-04T03:29:47;88406.41;;;-145.17;57.49
32759;BME280;19125;52.360;9.974;2023-03-04T03:32:13;88384.56;;;-145.17;57.75
32759;BME280;19125;52.360;9.974;2023-03-04T03:34:38;88398.47;;;-145.17;58.00
32759;BME280;19125;52.360;9.974;2023-03-04T03:37:03;88390.53;;;-145.17;58.16
32759;BME280;19125;52.360;9.974;2023-03-04T03:39:29;88406.41;;;-145.17;58.37
32759;BME280;19125;52.360;9.974;2023-03-04T03:41:54;88394.50;;;-145.17;58.60
32759;BME280;19125;52.360;9.974;2023-03-04T03:44:20;88370.66;;;-145.17;58.34
32759;BME280;19125;52.360;9.974;2023-03-04T03:46:45;88390.53;;;-145.17;58.16
32759;BME280;19125;52.360;9.974;2023-03-04T03:49:11;88378.63;;;-145.17;58.54
32759;BME280;19125;52.360;9.974;2023-03-04T03:51:37;88408.41;;;-145.17;58.43
32759;BME280;19125;52.360;9.974;2023-03-04T03:54:03;88388.53;;;-145.17;58.89
32759;BME280;19125;52.360;9.974;2023-03-04T03:56:28;88382.59;;;-145.17;58.88
32759;BME280;19125;52.360;9.974;2023-03-04T03:58:53;88374.63;;;-145.17;58.70
32759;BME280;19125;52.360;9.974;2023-03-04T04:01:19;88330.97;;;-145.17;59.42
32759;BME280;19125;52.360;9.974;2023-03-04T04:03:44;88374.63;;;-145.17;59.15
32759;BME280;19125;52.360;9.974;2023-03-04T04:06:09;88305.16;;;-145.17;59.17
32759;BME280;19125;52.360;9.974;2023-03-04T04:08:35;88354.78;;;-145.17;58.91
32759;BME280;19125;52.360;9.974;2023-03-04T04:11:00;88342.88;;;-145.17;58.91
32759;BME280;19125;52.360;9.974;2023-03-04T04:13:25;88346.84;;;-145.17;59.28
32759;BME280;19125;52.360;9.974;2023-03-04T04:15:51;88360.75;;;-145.17;59.25
32759;BME280;19125;52.360;9.974;2023-03-04T04:18:17;88344.84;;;-145.17;59.40
32759;BME280;19125;52.360;9.974;2023-03-04T04:20:42;88317.06;;;-145.17;59.42
32759;BME280;19125;52.360;9.974;2023-03-04T04:23:08;88297.22;;;-145.17;59.80
32759;BME280;19125;52.360;9.974;2023-03-04T04:25:33;88215.81;;;-145.17;60.07
32759;BME280;19125;52.360;9.974;2023-03-04T04:27:58;88108.59;;;-145.17;60.48
32759;BME280;19125;52.360;9.974;2023-03-04T04:30:24;87957.72;;;-145.17;60.78
32759;BME280;19125;52.360;9.974;2023-03-04T04:32:49;87854.47;;;-145.17;60.90
32759;BME280;19125;52.360;9.974;2023-03-04T04:35:15;87620.25;;;-145.17;61.13
32759;BME280;19125;52.360;9.974;2023-03-04T04:37:40;87366.16;;;-145.17;61.56
32759;BME280;19125;52.360;9.974;2023-03-04T04:40:06;87032.69;;;-145.17;61.72
32759;BME280;19125;52.360;9.974;2023-03-04T04:42:32;86798.50;;;-145.17;61.95
32759;BME280;19125;52.360;9.974;2023-03-04T04:44:57;86663.53;;;-145.17;61.80
32759;BME280;19125;52.360;9.974;2023-03-04T04:47:23;86695.28;;;-145.17;61.73
32759;BME280;19125;52.360;9.974;2023-03-04T04:49:48;86776.66;;;-145.17;61.80
32759;BME280;19125;52.360;9.974;2023-03-04T04:52:13;86794.53;;;-145.17;61.17
32759;BME280;19125;52.360;9.974;2023-03-04T04:54:39;86852.09;;;-145.17;61.53
32759;BME280;19125;52.360;9.974;2023-03-04T04:57:04;86865.97;;;-145.17;61.39
32759;BME280;19125;52.360;9.974;2023-03-04T04:59:29;86705.22;;;-145.17;61.75
32759;BME280;19125;52.360;9.974;2023-03-04T05:01:55;86478.97;;;-145.17;62.03
32759;BME280;19125;52.360;9.974;2023-03-04T05:04:20;86016.59;;;-145.17;61.94
32759;BME280;19125;52.360;9.974;2023-03-04T05:06:45;85312.25;;;-145.17;62.18
32759;BME280;19125;52.360;9.974;2023-03-04T05:09:11;84423.53;;;-145.17;62.69
32759;BME280;19125;52.360;9.974;2023-03-04T05:11:37;82916.34;;;-145.17;63.08
32759;BME280;19125;52.360;9.974;2023-03-04T05:14:02;80886.50;;;-145.17;63.40
32759;BME280;19125;52.360;9.974;2023-03-04T05:16:27;78225.88;;;-145.17;63.25
32759;BME280;19125;52.360;9.974;2023-03-04T05:18:53;74931.75;;;-145.17;63.62
32759;BME280;19125;52.360;9.974;2023-03-04T05:21:18;71583.00;;;-145.17;64.24
32759;BME280;19125;52.360;9.974;2023-03-04T05:23:44;67557.53;;;-145.17;64.51
32759;BME280;19125;52.360;9.974;2023-03-04T05:26:12;63506.53;;;-145.17;64.50
32759;BME280;19125;52.360;9.974;2023-03-04T05:28:38;60224.53;;;-145.17;64.78
32759;BME280;19125;52.360;9.974;2023-03-04T05:31:04;57701.75;;;-145.17;64.90
32759;BME280;19125;52.360;9.974;2023-03-04T05:33:29;55180.59;;;-145.17;64.94
32759;BME280;19125;52.360;9.974;2023-03-04T05:35:55;53668.66;;;-145.17;65.20
32759;BME280;19125;52.360;9.974;2023-03-04T05:38:20;51905.47;;;-145.17;65.17
32759;BME280;19125;52.360;9.974;2023-03-04T05:40:46;49891.34;;;-145.17;65.44
32759;BME280;19125;52.360;9.974;2023-03-04T05:43:13;50143.06;;;-145.17;65.45
32759;BME280;19125;52.360;9.974;2023-03-04T05:45:38;49136.31;;;-145.17;65.63
32759;BME280;19125;52.360;9.974;2023-03-04T05:48:05;48129.84;;;-145.17;65.53
32759;BME280;19125;52.360;9.974;2023-03-04T05:50:31;46872.09;;;-145.17;65.85
32759;BME280;19125;52.360;9.974;2023-03-04T05:52:56;45111.94;;;-145.17;66.04
32759;BME280;19125;52.360;9.974;2023-03-04T05:55:22;44106.50;;;-145.17;66.25
32759;BME280;19125;52.360;9.974;2023-03-04T05:57:47;42598.78;;;-145.17;66.20
32759;BME280;19125;52.360;9.974;2023-03-04T06:00:14;41845.16;;;-145.17;66.07
32759;BME280;19125;52.360;9.974;2023-03-04T06:02:40;41091.66;;;-145.17;66.01
32759;BME280;19125;52.360;9.974;2023-03-04T06:05:07;40840.53;;;-145.17;66.25
32759;BME280;19125;52.360;9.974;2023-03-04T06:07:32;41091.66;;;-145.17;66.11
32759;BME280;19125;52.360;9.974;2023-03-04T06:09:58;41342.81;;;-145.17;66.25
32759;BME280;19125;52.360;9.974;2023-03-04T06:12:23;42096.34;;;-145.17;65.60
32759;BME280;19125;52.360;9.974;2023-03-04T06:14:49;42850.03;;;-145.17;66.01
32759;BME280;19125;52.360;9.974;2023-03-04T06:17:15;43603.84;;;-145.17;65.74
32759;BME280;19125;52.360;9.974;2023-03-04T06:19:40;43855.16;;;-145.17;65.89
32759;BME280;19125;52.360;9.974;2023-03-04T06:22:07;43352.56;;;-145.17;65.80
32759;BME280;19125;52.360;9.974;2023-03-04T06:24:32;42598.78;;;-145.17;65.74
32759;BME280;19125;52.360;9.974;2023-03-04T06:26:57;41593.97;;;-145.17;66.02
32759;BME280;19125;52.360;9.974;2023-03-04T06:29:23;40840.53;;;-145.17;66.14
32759;BME280;19125;52.360;9.974;2023-03-04T06:31:48;40589.41;;;-145.17;66.25
32759;BME280;19125;52.360;9.974;2023-03-04T06:34:14;40589.41;;;-145.17;66.01
32759;BME280;19125;52.360;9.974;2023-03-04T06:36:39;40338.31;;;-145.17;66.46
32759;BME280;19125;52.360;9.974;2023-03-04T06:39:05;39836.16;;;-145.17;66.38
32759;BME280;19125;52.360;9.974;2023-03-04T06:41:31;39585.13;;;-145.17;66.29
32759;BME280;19125;52.360;9.974;2023-03-04T06:43:57;39083.06;;;-145.17;66.50
32759;BME280;19125;52.360;9.974;2023-03-04T06:46:22;38330.09;;;-145.17;66.56
32759;BME280;19125;52.360;9.974;2023-03-04T06:48:48;37075.50;;;-145.17;66.40
32759;BME280;19125;52.360;9.974;2023-03-04T06:51:13;36573.75;;;-145.17;66.39
32759;BME280;19125;52.360;9.974;2023-03-04T06:53:39;35319.69;;;-145.17;66.46
32759;BME280;19125;52.360;9.974;2023-03-04T06:56:06;35068.94;;;-145.17;66.76
32759;BME280;19125;52.360;9.974;2023-03-04T06:58:32;35068.94;;;-145.17;66.56
32759;BME280;19125;52.360;9.974;2023-03-04T07:03:39;33564.69;;;-145.17;66.94
32759;BME280;19125;52.360;9.974;2023-03-04T07:06:05;33564.69;;;-145.17;66.86
32759;BME280;19125;52.360;9.974;2023-03-04T07:08:30;33564.69;;;-145.17;66.70
32759;BME280;19125;52.360;9.974;2023-03-04T07:10:55;33063.41;;;-145.17;66.86
32759;BME280;19125;52.360;9.974;2023-03-04T07:13:20;31810.47;;;-145.17;67.26
32759;BME280;19125;52.360;9.974;2023-03-04T07:15:46;30557.94;;;-145.17;67.40
32759;BME280;19125;52.360;9.974;2023-03-04T07:18:11;28554.75;;;-145.17;67.21
32759;BME280;19125;52.360;9.974;2023-03-04T07:20:37;26802.75;;;-145.17;67.54
32759;BME280;19125;52.360;9.974;2023-03-04T07:23:02;25301.69;;;-145.17;67.59
32759;BME280;19125;52.360;9.974;2023-03-04T07:25:27;24551.38;;;-145.17;67.71
32759;BME280;19125;52.360;9.974;2023-03-04T07:27:53;23551.19;;;-145.17;68.03
32759;BME280;19125;52.360;9.974;2023-03-04T07:30:18;22551.25;;;-145.17;67.86
32759;BME280;19125;52.360;9.974;2023-03-04T07:32:44;22051.38;;;-145.17;67.73
32759;BME280;19125;52.360;9.974;2023-03-04T07:35:09;21551.56;;;-145.17;67.77
32759;BME280;19125;52.360;9.974;2023-03-04T07:37:34;21801.44;;;-145.17;67.76
32759;BME280;19125;52.360;9.974;2023-03-04T07:40:00;21801.44;;;-145.17;67.66
32759;BME280;19125;52.360;9.974;2023-03-04T07:42:25;21801.44;;;-145.17;67.88
32759;BME280;19125;52.360;9.974;2023-03-04T07:44:50;20552.13;;;-145.17;67.84
32759;BME280;19125;52.360;9.974;2023-03-04T07:47:16;19552.97;;;-145.17;68.26
32759;BME280;19125;52.360;9.974;2023-03-04T07:49:41;18304.34;;;-145.17;68.21
32759;BME280;19125;52.360;9.974;2023-03-04T07:55:49;14560.94;;;-145.17;68.58
32759;BME280;19125;52.360;9.974;2023-03-04T07:58:15;14062.09;;;-145.17;68.91
32759;BME280;19125;52.360;9.974;2023-03-04T08:00:43;13313.94;;;-145.17;68.86
32759;BME280;19125;52.360;9.974;2023-03-04T08:03:09;13313.94;;;-145.17;68.80
32759;BME280;19125;52.360;9.974;2023-03-04T08:05:34;13313.94;;;-145.17;68.59
32759;BME280;19125;52.360;9.974;2023-03-04T08:08:00;13812.69;;;-145.17;68.59
32759;BME280;19125;52.360;9.974;2023-03-04T08:10:25;15059.84;;;-145.17;68.01
32759;BME280;19125;52.360;9.974;2023-03-04T08:12:50;16806.56;;;-145.17;67.70
32759;BME280;19125;52.360;9.974;2023-03-04T08:15:16;19303.19;;;-145.17;67.68
32759;BME280;19125;52.360;9.974;2023-03-04T08:17:41;21301.69;;;-145.17;67.56
32759;BME280;19125;52.360;9.974;2023-03-04T08:20:07;22301.28;;;-145.17;67.37
32759;BME280;19125;52.360;9.974;2023-03-04T08:22:32;22301.28;;;-145.17;67.62
32759;BME280;19125;52.360;9.974;2023-03-04T08:24:58;21801.44;;;-145.17;67.69
32759;BME280;19125;52.360;9.974;2023-03-04T08:27:23;20052.50;;;-145.17;67.91
32759;BME280;19125;52.360;9.974;2023-03-04T08:29:48;18304.34;;;-145.17;68.40
32759;BME280;19125;52.360;9.974;2023-03-04T08:32:14;15808.34;;;-145.17;68.38
32759;BME280;19125;52.360;9.974;2023-03-04T08:34:39;13812.69;;;-145.17;69.00
32759;BME280;19125;52.360;9.974;2023-03-04T08:37:05;11319.56;;;-145.17;68.92
32759;BME280;19125;52.360;9.974;2023-03-04T08:39:31;9077.13;;;-145.17;69.40
32759;BME280;19125;52.360;9.974;2023-03-04T08:41:57;7333.91;;;-145.17;69.26
32759;BME280;19125;52.360;9.974;2023-03-04T08:44:22;5342.63;;;-145.17;69.59
32759;BME280;19125;52.360;9.974;2023-03-04T08:46:48;4098.59;;;-145.17;69.94
32759;BME280;19125;52.360;9.974;2023-03-04T08:49:13;2854.94;;;-145.17;70.06
32759;BME280;19125;52.360;9.974;2023-03-04T08:51:39;1363.13;;;-145.17;70.22
32759;BME280;19125;52.360;9.974;2023-03-04T08:54:04;120.34;;;-145.17;70.08
32759;BME280;19125;52.360;9.974;2023-03-04T08:56:30;-1122.00;;;-145.17;70.45
32759;BME280;19125;52.360;9.974;2023-03-04T08:58:55;-2363.94;;;-145.17;70.64
32759;BME280;19125;52.360;9.974;2023-03-04T09:01:20;-3108.94;;;-145.17;70.84
32759;BME280;19125;52.360;9.974;2023-03-04T09:03:46;-3853.78;;;-145.17;70.59
32759;BME280;19125;52.360;9.974;2023-03-04T09:06:14;-4846.66;;;-145.17;71.03
32759;BME280;19125;52.360;9.974;2023-03-04T09:08:40;-5343.00;;;-145.17;71.17
32759;BME280;19125;52.360;9.974;2023-03-04T09:11:06;-6087.41;;;-145.17;70.99
32759;BME280;19125;52.360;9.974;2023-03-04T09:13:32;-6831.66;;;-145.17;71.07
32759;BME280;19125;52.360;9.974;2023-03-04T09:15:57;-7575.78;;;-145.17;71.13
32759;BME280;19125;52.360;9.974;2023-03-04T09:18:24;-7823.78;;;-145.17;71.34
32759;BME280;19125;52.360;9.974;2023-03-04T09:20:50;-8319.75;;;-145.17;71.26
32759;BME280;19125;52.360;9.974;2023-03-04T09:23:16;-8815.66;;;-145.17;71.23
32759;BME280;19125;52.360;9.974;2023-03-04T09:25:42;-9063.56;;;-145.17;71.46
32759;BME280;19125;52.360;9.974;2023-03-04T09:28:09;-9559.38;;;-145.17;71.48
32759;BME280;19125;52.360;9.974;2023-03-04T09:30:35;-10550.78;;;-145.17;71.63
32759;BME280;19125;52.360;9.974;2023-03-04T09:33:01;-11294.19;;;-145.17;71.72
32759;BME280;19125;52.360;9.974;2023-03-04T09:35:26;-12037.44;;;-145.17;71.78
32759;BME280;19125;52.360;9.974;2023-03-04T09:37:54;-12532.84;;;-145.17;71.71
32759;BME280;19125;52.360;9.974;2023-03-04T09:40:22;-12532.84;;;-145.17;71.77
32759;BME280;19125;52.360;9.974;2023-03-04T09:42:55;-12532.84;;;-145.17;71.48
32759;BME280;19125;52.360;9.974;2023-03-04T09:45:25;-12037.44;;;-145.17;70.99
32759;BME280;19125;52.360;9.974;2023-03-04T09:47:53;-11541.97;;;-145.17;70.98
32759;BME280;19125;52.360;9.974;2023-03-04T09:50:20;-10798.59;;;-145.17;70.62
32759;BME280;19125;52.360;9.974;2023-03-04T09:53:05;-9807.25;;;-145.17;70.23
32759;BME280;19125;52.360;9.974;2023-03-04T09:55:40;-8567.72;;;-145.17;69.92
32759;BME280;19125;52.360;9.974;2023-03-04T09:58:27;-6831.66;;;-145.17;69.49
32759;BME280;19125;52.360;9.974;2023-03-04T10:01:16;-5343.00;;;-145.17;69.52
32759;BME280;19125;52.360;9.974;2023-03-04T10:03:48;-4102.00;;;-145.17;69.24
32759;BME280;19125;52.360;9.974;2023-03-04T10:06:18;-2612.28;;;-145.17;69.10
32759;BME280;19125;52.360;9.974;2023-03-04T10:11:40;-128.16;;;-145.17;68.42
32759;BME280;19125;52.360;9.974;2023-03-04T10:17:23;2854.94;;;-145.17;67.92
32759;BME280;19125;52.360;9.974;2023-03-04T10:20:06;5342.63;;;-145.17;67.66
32759;BME280;19125;52.360;9.974;2023-03-04T10:22:43;10571.94;;;-145.17;66.81
32759;BME280;19125;52.360;9.974;2023-03-04T10:25:19;15309.34;;;-145.17;65.99
32759;BME280;19125;52.360;9.974;2023-03-04T10:27:55;19552.97;;;-145.17;65.76
32759;BME280;19125;52.360;9.974;2023-03-04T10:30:29;23051.19;;;-145.17;65.37
32759;BME280;19125;52.360;9.974;2023-03-04T10:32:56;27053.00;;;-145.17;64.84
32759;BME280;19125;52.360;9.974;2023-03-04T10:35:25;30808.44;;;-145.17;64.70
32759;BME280;19125;52.360;9.974;2023-03-04T10:37:51;33063.41;;;-145.17;64.18
32759;BME280;19125;52.360;9.974;2023-03-04T10:40:22;37577.28;;;-145.17;63.60
32759;BME280;19125;52.360;9.974;2023-03-04T10:42:49;41845.16;;;-145.17;63.51
32759;BME280;19125;52.360;9.974;2023-03-04T10:45:24;43352.56;;;-145.17;63.67
32759;BME280;19125;52.360;9.974;2023-03-04T10:47:54;44357.84;;;-145.17;63.50
32759;BME280;19125;52.360;9.974;2023-03-04T10:50:23;44860.56;;;-145.17;63.49
32759;BME280;19125;52.360;9.974;2023-03-04T10:52:49;43603.84;;;-145.17;63.82
32759;BME280;19125;52.360;9.974;2023-03-04T10:55:27;43352.56;;;-145.17;63.68
32759;BME280;19125;52.360;9.974;2023-03-04T10:57:55;44860.56;;;-145.17;63.47
32759;BME280;19125;52.360;9.974;2023-03-04T11:00:30;46117.66;;;-145.17;63.55
32759;BME280;19125;52.360;9.974;2023-03-04T11:05:40;54172.56;;;-145.17;62.49
32759;BME280;19125;52.360;9.974;2023-03-04T11:08:16;62243.91;;;-145.17;61.68
32759;BME280;19125;52.360;9.974;2023-03-04T11:10:42;70560.94;;;-145.17;61.37
32759;BME280;19125;52.360;9.974;2023-03-04T11:18:33;79374.69;;;-145.17;61.07
32759;BME280;19125;52.360;9.974;2023-03-04T11:21:06;76669.53;;;-145.17;61.29
32759;BME280;19125;52.360;9.974;2023-03-04T11:23:38;73495.38;;;-145.17;61.85
32759;BME280;19125;52.360;9.974;2023-03-04T11:26:13;67966.41;;;-145.17;62.33
32759;BME280;19125;52.360;9.974;2023-03-04T11:28:49;61486.53;;;-145.17;62.57
32759;BME280;19125;52.360;9.974;2023-03-04T11:31:24;59719.84;;;-145.17;62.72
32759;BME280;19125;52.360;9.974;2023-03-04T11:34:15;57953.97;;;-145.17;62.68
32759;BME280;19125;52.360;9.974;2023-03-04T11:39:36;72332.41;;;-145.17;61.39
32759;BME280;19125;52.360;9.974;2023-03-04T11:44:52;85379.69;;;-145.17;59.44
32759;BME280;19125;52.360;9.974;2023-03-04T11:47:31;86334.09;;;-145.17;58.92
32759;BME280;19125;52.360;9.974;2023-03-04T11:52:51;87497.16;;;-145.17;57.95
32759;BME280;19125;52.360;9.974;2023-03-04T12:01:27;88017.28;;;-145.17;55.97
32759;BME280;19125;52.360;9.974;2023-03-04T12:04:09;88080.81;;;-145.17;55.58
32759;BME280;19125;52.360;9.974;2023-03-04T12:06:53;88120.50;;;-145.17;55.32
32759;BME280;19125;52.360;9.974;2023-03-04T12:19:45;88197.94;;;-145.17;56.03
32759;BME280;19125;52.360;9.974;2023-03-04T12:27:54;88041.09;;;-145.17;54.24
32759;BME280;19125;52.360;9.974;2023-03-04T12:35:37;87987.50;;;-145.17;53.47
32759;BME280;19125;52.360;9.974;2023-03-04T12:46:43;88045.06;;;-145.17;54.10
32759;BME280;19125;52.360;9.974;2023-03-04T12:54:51;88108.59;;;-145.17;54.75
32759;BME280;19125;52.360;9.974;2023-03-04T12:57:22;88124.47;;;-145.17;55.92
32759;BME280;19125;52.360;9.974;2023-03-04T12:59:58;88158.22;;;-145.17;55.60
32759;BME280;19125;52.360;9.974;2023-03-04T13:02:58;88156.25;;;-145.17;55.52
32759;BME280;19125;52.360;9.974;2023-03-04T13:08:35;88060.94;;;-145.17;53.88
32759;BME280;19125;52.360;9.974;2023-03-04T13:16:49;87902.13;;;-145.17;51.77
32759;BME280;19125;52.360;9.974;2023-03-04T13:19:51;87910.06;;;-145.17;51.80
32759;BME280;19125;52.360;9.974;2023-03-04T13:24:55;87886.25;;;-145.17;51.68
32759;BME280;19125;52.360;9.974;2023-03-04T13:27:43;87836.63;;;-145.17;51.05
32759;BME280;19125;52.360;9.974;2023-03-04T13:38:25;87511.06;;;-145.17;46.78
32759;BME280;19125;52.360;9.974;2023-03-04T13:57:16;87604.34;;;-145.17;48.37
32759;BME280;19125;52.360;9.974;2023-03-04T13:59:45;87612.28;;;-145.17;48.17
32759;BME280;19125;52.360;9.974;2023-03-04T14:02:18;87679.78;;;-145.17;48.57
32759;BME280;19125;52.360;9.974;2023-03-04T14:04:57;87671.84;;;-145.17;48.49
32759;BME280;19125;52.360;9.974;2023-03-04T14:07:29;87675.81;;;-145.17;48.67
32759;BME280;19125;52.360;9.974;2023-03-04T14:12:34;87675.81;;;-145.17;48.64
32759;BME280;19125;52.360;9.974;2023-03-04T14:15:47;87657.94;;;-145.17;48.02
32759;BME280;19125;52.360;9.974;2023-03-04T14:17:54;87612.28;;;-145.17;47.75
32759;BME280;19125;52.360;9.974;2023-03-04T14:20:33;87562.66;;;-145.17;47.48
32759;BME280;19125;52.360;9.974;2023-03-04T14:23:01;87628.19;;;-145.17;47.91
32759;BME280;19125;52.360;9.974;2023-03-04T14:25:29;87608.31;;;-145.17;47.75
32759;BME280;19125;52.360;9.974;2023-03-04T14:30:29;87596.41;;;-145.17;47.55
32759;BME280;19125;52.360;9.974;2023-03-04T14:32:56;87612.28;;;-145.17;47.86
32759;BME280;19125;52.360;9.974;2023-03-04T14:35:27;87677.81;;;-145.17;48.83